sensor_id;sensor_type;location;lat;lon;timestamp;P1;durP1;ratioP1;P2;durP2;ratioP2
76892;SDS011;65854;51.466;7.260;2023-03-01T00:01:30;15.95;;;7.18;;
76892;SDS011;65854;51.466;7.260;2023-03-01T00:03:56;13.67;;;6.60;;
76892;SDS011;65854;51.466;7.260;2023-03-01T00:06:23;17.58;;;6.72;;
76892;SDS011;65854;51.466;7.260;2023-03-01T00:08:50;14.98;;;7.07;;
76892;SDS011;65854;51.466;7.260;2023-03-01T00:11:26;13.18;;;6.82;;
76892;SDS011;65854;51.466;7.260;2023-03-01T00:13:54;13.65;;;6.20;;
76892;SDS011;65854;51.466;7.260;2023-03-01T00:16:22;15.45;;;6.13;;
76892;SDS011;65854;51.466;7.260;2023-03-01T00:18:53;16.45;;;6.65;;
76892;SDS011;65854;51.466;7.260;2023-03-01T00:21:20;12.50;;;6.50;;
76892;SDS011;65854;51.466;7.260;2023-03-01T00:23:49;14.63;;;6.53;;
76892;SDS011;65854;51.466;7.260;2023-03-01T00:26:15;13.50;;;6.07;;
76892;SDS011;65854;51.466;7.260;2023-03-01T00:28:42;15.63;;;6.25;;
76892;SDS011;65854;51.466;7.260;2023-03-01T00:31:13;13.48;;;6.18;;
76892;SDS011;65854;51.466;7.260;2023-03-01T00:33:40;16.70;;;7.13;;
76892;SDS011;65854;51.466;7.260;2023-03-01T00:36:06;15.17;;;6.53;;
76892;SDS011;65854;51.466;7.260;2023-03-01T00:38:36;12.65;;;6.40;;
76892;SDS011;65854;51.466;7.260;2023-03-01T00:41:08;12.02;;;6.40;;
76892;SDS011;65854;51.466;7.260;2023-03-01T00:43:38;14.43;;;6.28;;
76892;SDS011;65854;51.466;7.260;2023-03-01T00:46:07;13.23;;;6.87;;
76892;SDS011;65854;51.466;7.260;2023-03-01T00:48:35;13.98;;;7.05;;
76892;SDS011;65854;51.466;7.260;2023-03-01T00:51:08;13.80;;;6.53;;
76892;SDS011;65854;51.466;7.260;2023-03-01T00:53:35;14.02;;;6.75;;
76892;SDS011;65854;51.466;7.260;2023-03-01T00:56:01;12.43;;;6.40;;
76892;SDS011;65854;51.466;7.260;2023-03-01T00:58:27;13.02;;;6.65;;
76892;SDS011;65854;51.466;7.260;2023-03-01T01:00:53;14.32;;;6.72;;
76892;SDS011;65854;51.466;7.260;2023-03-01T01:03:18;15.77;;;7.20;;
76892;SDS011;65854;51.466;7.260;2023-03-01T01:05:44;15.68;;;7.20;;
76892;SDS011;65854;51.466;7.260;2023-03-01T01:08:10;16.97;;;7.17;;
76892;SDS011;65854;51.466;7.260;2023-03-01T01:10:36;15.52;;;7.25;;
76892;SDS011;65854;51.466;7.260;2023-03-01T01:13:02;15.97;;;7.10;;
76892;SDS011;65854;51.466;7.260;2023-03-01T01:15:28;15.98;;;7.05;;
76892;SDS011;65854;51.466;7.260;2023-03-01T01:17:53;18.02;;;7.32;;
76892;SDS011;65854;51.466;7.260;2023-03-01T01:20:20;16.57;;;6.80;;
76892;SDS011;65854;51.466;7.260;2023-03-01T01:22:46;18.23;;;7.20;;
76892;SDS011;65854;51.466;7.260;2023-03-01T01:25:11;14.70;;;6.40;;
76892;SDS011;65854;51.466;7.260;2023-03-01T01:27:37;15.85;;;7.68;;
76892;SDS011;65854;51.466;7.260;2023-03-01T01:30:03;16.60;;;7.63;;
76892;SDS011;65854;51.466;7.260;2023-03-01T01:32:30;14.63;;;7.28;;
76892;SDS011;65854;51.466;7.260;2023-03-01T01:34:55;13.17;;;6.87;;
76892;SDS011;65854;51.466;7.260;2023-03-01T01:37:21;18.80;;;7.77;;
76892;SDS011;65854;51.466;7.260;2023-03-01T01:39:46;15.95;;;7.35;;
76892;SDS011;65854;51.466;7.260;2023-03-01T01:42:14;17.47;;;7.13;;
76892;SDS011;65854;51.466;7.260;2023-03-01T01:44:42;15.88;;;6.90;;
76892;SDS011;65854;51.466;7.260;2023-03-01T01:52:18;15.40;;;6.43;;
76892;SDS011;65854;51.466;7.260;2023-03-01T01:57:32;15.82;;;7.00;;
76892;SDS011;65854;51.466;7.260;2023-03-01T02:00:09;14.95;;;6.57;;
76892;SDS011;65854;51.466;7.260;2023-03-01T02:02:36;13.35;;;6.60;;
76892;SDS011;65854;51.466;7.260;2023-03-01T02:05:06;16.50;;;6.63;;
76892;SDS011;65854;51.466;7.260;2023-03-01T02:07:38;15.18;;;6.97;;
76892;SDS011;65854;51.466;7.260;2023-03-01T02:10:04;18.60;;;6.88;;
76892;SDS011;65854;51.466;7.260;2023-03-01T02:12:31;13.48;;;6.40;;
76892;SDS011;65854;51.466;7.260;2023-03-01T02:14:57;14.98;;;6.55;;
76892;SDS011;65854;51.466;7.260;2023-03-01T02:17:22;13.57;;;6.37;;
76892;SDS011;65854;51.466;7.260;2023-03-01T02:19:56;14.63;;;6.40;;
76892;SDS011;65854;51.466;7.260;2023-03-01T02:22:48;17.37;;;6.57;;
76892;SDS011;65854;51.466;7.260;2023-03-01T02:30:25;18.23;;;7.03;;
76892;SDS011;65854;51.466;7.260;2023-03-01T02:32:53;14.95;;;7.22;;
76892;SDS011;65854;51.466;7.260;2023-03-01T02:35:24;17.00;;;6.90;;
76892;SDS011;65854;51.466;7.260;2023-03-01T02:37:49;14.57;;;7.53;;
76892;SDS011;65854;51.466;7.260;2023-03-01T02:40:16;15.17;;;7.33;;
76892;SDS011;65854;51.466;7.260;2023-03-01T02:42:46;15.65;;;6.80;;
76892;SDS011;65854;51.466;7.260;2023-03-01T02:45:15;16.48;;;7.00;;
76892;SDS011;65854;51.466;7.260;2023-03-01T02:47:41;19.07;;;7.07;;
76892;SDS011;65854;51.466;7.260;2023-03-01T02:50:12;17.00;;;6.88;;
76892;SDS011;65854;51.466;7.260;2023-03-01T02:53:04;15.57;;;6.80;;
76892;SDS011;65854;51.466;7.260;2023-03-01T02:55:37;19.50;;;7.38;;
76892;SDS011;65854;51.466;7.260;2023-03-01T02:58:03;15.27;;;7.25;;
76892;SDS011;65854;51.466;7.260;2023-03-01T03:00:36;15.23;;;7.43;;
76892;SDS011;65854;51.466;7.260;2023-03-01T03:03:05;15.68;;;7.50;;
76892;SDS011;65854;51.466;7.260;2023-03-01T03:05:31;16.25;;;6.95;;
76892;SDS011;65854;51.466;7.260;2023-03-01T03:07:58;15.68;;;7.03;;
76892;SDS011;65854;51.466;7.260;2023-03-01T03:10:27;17.95;;;7.45;;
76892;SDS011;65854;51.466;7.260;2023-03-01T03:12:56;20.33;;;7.47;;
76892;SDS011;65854;51.466;7.260;2023-03-01T03:15:27;14.40;;;6.45;;
76892;SDS011;65854;51.466;7.260;2023-03-01T03:17:54;14.38;;;6.70;;
76892;SDS011;65854;51.466;7.260;2023-03-01T03:20:20;14.30;;;7.13;;
76892;SDS011;65854;51.466;7.260;2023-03-01T03:22:51;16.02;;;7.50;;
76892;SDS011;65854;51.466;7.260;2023-03-01T03:25:18;20.77;;;7.47;;
76892;SDS011;65854;51.466;7.260;2023-03-01T03:27:46;15.93;;;7.13;;
76892;SDS011;65854;51.466;7.260;2023-03-01T03:30:14;16.23;;;7.40;;
76892;SDS011;65854;51.466;7.260;2023-03-01T03:32:44;15.82;;;7.50;;
76892;SDS011;65854;51.466;7.260;2023-03-01T03:35:18;18.50;;;7.97;;
76892;SDS011;65854;51.466;7.260;2023-03-01T03:37:44;16.83;;;7.13;;
76892;SDS011;65854;51.466;7.260;2023-03-01T03:40:29;17.20;;;7.32;;
76892;SDS011;65854;51.466;7.260;2023-03-01T03:42:56;16.52;;;7.90;;
76892;SDS011;65854;51.466;7.260;2023-03-01T03:45:21;14.05;;;7.25;;
76892;SDS011;65854;51.466;7.260;2023-03-01T03:47:47;18.30;;;7.20;;
76892;SDS011;65854;51.466;7.260;2023-03-01T03:50:14;15.02;;;7.00;;
76892;SDS011;65854;51.466;7.260;2023-03-01T03:52:42;17.30;;;7.67;;
76892;SDS011;65854;51.466;7.260;2023-03-01T03:55:08;17.00;;;7.25;;
76892;SDS011;65854;51.466;7.260;2023-03-01T03:57:35;15.95;;;7.38;;
76892;SDS011;65854;51.466;7.260;2023-03-01T04:00:08;20.07;;;7.37;;
76892;SDS011;65854;51.466;7.260;2023-03-01T04:02:43;16.92;;;7.57;;
76892;SDS011;65854;51.466;7.260;2023-03-01T04:05:11;18.83;;;8.30;;
76892;SDS011;65854;51.466;7.260;2023-03-01T04:07:39;18.90;;;7.80;;
76892;SDS011;65854;51.466;7.260;2023-03-01T04:10:06;19.40;;;7.38;;
76892;SDS011;65854;51.466;7.260;2023-03-01T04:12:34;16.80;;;7.23;;
76892;SDS011;65854;51.466;7.260;2023-03-01T04:15:00;15.98;;;7.38;;
76892;SDS011;65854;51.466;7.260;2023-03-01T04:17:26;18.77;;;6.97;;
76892;SDS011;65854;51.466;7.260;2023-03-01T04:19:51;17.27;;;6.67;;
76892;SDS011;65854;51.466;7.260;2023-03-01T04:22:17;15.32;;;7.10;;
76892;SDS011;65854;51.466;7.260;2023-03-01T04:24:44;16.15;;;6.85;;
76892;SDS011;65854;51.466;7.260;2023-03-01T04:27:10;17.25;;;7.40;;
76892;SDS011;65854;51.466;7.260;2023-03-01T04:29:37;15.73;;;7.50;;
76892;SDS011;65854;51.466;7.260;2023-03-01T04:32:02;17.15;;;6.93;;
76892;SDS011;65854;51.466;7.260;2023-03-01T04:34:29;17.27;;;7.13;;
76892;SDS011;65854;51.466;7.260;2023-03-01T04:36:54;17.90;;;7.22;;
76892;SDS011;65854;51.466;7.260;2023-03-01T04:39:20;16.10;;;7.38;;
76892;SDS011;65854;51.466;7.260;2023-03-01T04:41:46;18.17;;;7.67;;
76892;SDS011;65854;51.466;7.260;2023-03-01T04:44:12;19.48;;;8.07;;
76892;SDS011;65854;51.466;7.260;2023-03-01T04:46:38;18.50;;;7.25;;
76892;SDS011;65854;51.466;7.260;2023-03-01T04:49:03;17.58;;;7.60;;
76892;SDS011;65854;51.466;7.260;2023-03-01T04:51:30;17.40;;;7.30;;
76892;SDS011;65854;51.466;7.260;2023-03-01T04:53:57;15.50;;;7.40;;
76892;SDS011;65854;51.466;7.260;2023-03-01T04:56:23;20.20;;;7.40;;
76892;SDS011;65854;51.466;7.260;2023-03-01T04:58:48;16.30;;;7.50;;
76892;SDS011;65854;51.466;7.260;2023-03-01T05:01:15;18.92;;;7.55;;
76892;SDS011;65854;51.466;7.260;2023-03-01T05:03:43;16.90;;;7.63;;
76892;SDS011;65854;51.466;7.260;2023-03-01T05:06:10;21.23;;;7.40;;
76892;SDS011;65854;51.466;7.260;2023-03-01T05:08:37;17.42;;;6.90;;
76892;SDS011;65854;51.466;7.260;2023-03-01T05:11:03;17.40;;;7.47;;
76892;SDS011;65854;51.466;7.260;2023-03-01T05:13:30;16.73;;;7.05;;
76892;SDS011;65854;51.466;7.260;2023-03-01T05:15:57;16.48;;;7.30;;
76892;SDS011;65854;51.466;7.260;2023-03-01T05:18:24;17.07;;;6.70;;
76892;SDS011;65854;51.466;7.260;2023-03-01T05:20:52;17.25;;;7.00;;
76892;SDS011;65854;51.466;7.260;2023-03-01T05:23:21;16.55;;;7.40;;
76892;SDS011;65854;51.466;7.260;2023-03-01T05:25:47;17.83;;;7.10;;
76892;SDS011;65854;51.466;7.260;2023-03-01T05:28:14;15.82;;;6.95;;
76892;SDS011;65854;51.466;7.260;2023-03-01T05:30:40;18.10;;;7.67;;
76892;SDS011;65854;51.466;7.260;2023-03-01T05:33:06;20.70;;;7.57;;
76892;SDS011;65854;51.466;7.260;2023-03-01T05:35:38;16.95;;;7.38;;
76892;SDS011;65854;51.466;7.260;2023-03-01T05:38:08;15.65;;;7.20;;
76892;SDS011;65854;51.466;7.260;2023-03-01T05:40:37;18.30;;;7.90;;
76892;SDS011;65854;51.466;7.260;2023-03-01T05:43:04;18.95;;;7.75;;
76892;SDS011;65854;51.466;7.260;2023-03-01T05:45:30;16.50;;;7.88;;
76892;SDS011;65854;51.466;7.260;2023-03-01T05:47:57;23.25;;;7.95;;
76892;SDS011;65854;51.466;7.260;2023-03-01T05:50:27;19.30;;;7.65;;
76892;SDS011;65854;51.466;7.260;2023-03-01T05:52:58;18.63;;;7.43;;
76892;SDS011;65854;51.466;7.260;2023-03-01T05:55:27;17.48;;;7.82;;
76892;SDS011;65854;51.466;7.260;2023-03-01T05:57:54;20.08;;;8.40;;
76892;SDS011;65854;51.466;7.260;2023-03-01T06:00:20;17.95;;;8.00;;
76892;SDS011;65854;51.466;7.260;2023-03-01T06:02:49;18.65;;;7.63;;
76892;SDS011;65854;51.466;7.260;2023-03-01T06:05:16;18.43;;;7.50;;
76892;SDS011;65854;51.466;7.260;2023-03-01T06:07:42;20.38;;;7.97;;
76892;SDS011;65854;51.466;7.260;2023-03-01T06:10:09;18.70;;;7.97;;
76892;SDS011;65854;51.466;7.260;2023-03-01T06:12:36;18.90;;;7.95;;
76892;SDS011;65854;51.466;7.260;2023-03-01T06:15:02;16.73;;;7.97;;
76892;SDS011;65854;51.466;7.260;2023-03-01T06:17:31;17.63;;;7.88;;
76892;SDS011;65854;51.466;7.260;2023-03-01T06:20:02;16.85;;;7.75;;
76892;SDS011;65854;51.466;7.260;2023-03-01T06:22:33;23.50;;;8.40;;
76892;SDS011;65854;51.466;7.260;2023-03-01T06:24:59;23.42;;;7.88;;
76892;SDS011;65854;51.466;7.260;2023-03-01T06:27:25;18.93;;;8.20;;
76892;SDS011;65854;51.466;7.260;2023-03-01T06:29:51;19.17;;;8.03;;
76892;SDS011;65854;51.466;7.260;2023-03-01T06:32:17;18.95;;;8.48;;
76892;SDS011;65854;51.466;7.260;2023-03-01T06:34:43;21.92;;;8.90;;
76892;SDS011;65854;51.466;7.260;2023-03-01T06:37:09;19.90;;;8.60;;
76892;SDS011;65854;51.466;7.260;2023-03-01T06:39:34;18.33;;;8.23;;
76892;SDS011;65854;51.466;7.260;2023-03-01T06:42:00;17.83;;;8.20;;
76892;SDS011;65854;51.466;7.260;2023-03-01T06:44:26;21.60;;;7.88;;
76892;SDS011;65854;51.466;7.260;2023-03-01T06:46:52;18.55;;;8.43;;
76892;SDS011;65854;51.466;7.260;2023-03-01T06:49:17;16.33;;;7.73;;
76892;SDS011;65854;51.466;7.260;2023-03-01T06:51:43;20.80;;;8.67;;
76892;SDS011;65854;51.466;7.260;2023-03-01T06:54:09;20.60;;;8.60;;
76892;SDS011;65854;51.466;7.260;2023-03-01T06:56:35;22.83;;;8.60;;
76892;SDS011;65854;51.466;7.260;2023-03-01T06:59:00;17.43;;;8.50;;
76892;SDS011;65854;51.466;7.260;2023-03-01T07:01:27;23.08;;;8.85;;
76892;SDS011;65854;51.466;7.260;2023-03-01T07:03:54;17.83;;;8.43;;
76892;SDS011;65854;51.466;7.260;2023-03-01T07:06:20;17.20;;;8.33;;
76892;SDS011;65854;51.466;7.260;2023-03-01T07:08:46;17.23;;;8.10;;
76892;SDS011;65854;51.466;7.260;2023-03-01T07:11:12;18.27;;;8.40;;
76892;SDS011;65854;51.466;7.260;2023-03-01T07:13:38;17.10;;;8.50;;
76892;SDS011;65854;51.466;7.260;2023-03-01T07:16:04;18.45;;;8.38;;
76892;SDS011;65854;51.466;7.260;2023-03-01T07:18:30;18.67;;;8.43;;
76892;SDS011;65854;51.466;7.260;2023-03-01T07:20:55;20.75;;;8.38;;
76892;SDS011;65854;51.466;7.260;2023-03-01T07:23:21;19.63;;;8.53;;
76892;SDS011;65854;51.466;7.260;2023-03-01T07:25:53;20.63;;;8.95;;
76892;SDS011;65854;51.466;7.260;2023-03-01T07:28:19;17.02;;;8.35;;
76892;SDS011;65854;51.466;7.260;2023-03-01T07:30:45;17.95;;;8.52;;
76892;SDS011;65854;51.466;7.260;2023-03-01T07:33:12;20.23;;;8.85;;
76892;SDS011;65854;51.466;7.260;2023-03-01T07:35:38;19.33;;;9.00;;
76892;SDS011;65854;51.466;7.260;2023-03-01T07:38:03;19.13;;;8.93;;
76892;SDS011;65854;51.466;7.260;2023-03-01T07:40:30;19.98;;;8.43;;
76892;SDS011;65854;51.466;7.260;2023-03-01T07:43:02;19.80;;;8.80;;
76892;SDS011;65854;51.466;7.260;2023-03-01T07:45:28;19.85;;;8.85;;
76892;SDS011;65854;51.466;7.260;2023-03-01T07:47:54;20.30;;;9.03;;
76892;SDS011;65854;51.466;7.260;2023-03-01T07:50:21;17.38;;;8.48;;
76892;SDS011;65854;51.466;7.260;2023-03-01T07:52:47;23.98;;;9.10;;
76892;SDS011;65854;51.466;7.260;2023-03-01T07:55:16;18.85;;;8.35;;
76892;SDS011;65854;51.466;7.260;2023-03-01T07:57:44;20.15;;;8.80;;
76892;SDS011;65854;51.466;7.260;2023-03-01T08:00:12;23.57;;;9.30;;
76892;SDS011;65854;51.466;7.260;2023-03-01T08:02:38;22.45;;;9.35;;
76892;SDS011;65854;51.466;7.260;2023-03-01T08:05:05;17.13;;;8.38;;
76892;SDS011;65854;51.466;7.260;2023-03-01T08:07:31;20.63;;;8.23;;
76892;SDS011;65854;51.466;7.260;2023-03-01T08:09:57;21.40;;;9.05;;
76892;SDS011;65854;51.466;7.260;2023-03-01T08:12:24;18.77;;;8.63;;
76892;SDS011;65854;51.466;7.260;2023-03-01T08:14:53;18.25;;;8.50;;
76892;SDS011;65854;51.466;7.260;2023-03-01T08:17:19;19.25;;;8.45;;
76892;SDS011;65854;51.466;7.260;2023-03-01T08:19:45;24.50;;;8.70;;
76892;SDS011;65854;51.466;7.260;2023-03-01T08:22:11;20.67;;;8.07;;
76892;SDS011;65854;51.466;7.260;2023-03-01T08:24:37;20.47;;;8.73;;
76892;SDS011;65854;51.466;7.260;2023-03-01T08:27:03;27.10;;;9.30;;
76892;SDS011;65854;51.466;7.260;2023-03-01T08:29:32;23.60;;;8.38;;
76892;SDS011;65854;51.466;7.260;2023-03-01T08:32:01;17.83;;;8.15;;
76892;SDS011;65854;51.466;7.260;2023-03-01T08:34:27;22.37;;;8.87;;
76892;SDS011;65854;51.466;7.260;2023-03-01T08:36:52;18.50;;;8.67;;
76892;SDS011;65854;51.466;7.260;2023-03-01T08:39:19;24.17;;;10.43;;
76892;SDS011;65854;51.466;7.260;2023-03-01T08:41:45;17.92;;;8.50;;
76892;SDS011;65854;51.466;7.260;2023-03-01T08:44:12;23.70;;;9.65;;
76892;SDS011;65854;51.466;7.260;2023-03-01T08:46:43;19.02;;;8.63;;
76892;SDS011;65854;51.466;7.260;2023-03-01T08:49:34;19.63;;;8.30;;
76892;SDS011;65854;51.466;7.260;2023-03-01T08:51:59;15.82;;;7.90;;
76892;SDS011;65854;51.466;7.260;2023-03-01T08:54:27;28.10;;;8.65;;
76892;SDS011;65854;51.466;7.260;2023-03-01T08:56:53;17.53;;;7.50;;
76892;SDS011;65854;51.466;7.260;2023-03-01T08:59:19;17.98;;;7.43;;
76892;SDS011;65854;51.466;7.260;2023-03-01T09:01:44;18.47;;;7.20;;
76892;SDS011;65854;51.466;7.260;2023-03-01T09:04:10;15.63;;;6.85;;
76892;SDS011;65854;51.466;7.260;2023-03-01T09:06:37;14.45;;;6.40;;
76892;SDS011;65854;51.466;7.260;2023-03-01T09:09:03;13.43;;;5.63;;
76892;SDS011;65854;51.466;7.260;2023-03-01T09:11:34;15.50;;;6.20;;
76892;SDS011;65854;51.466;7.260;2023-03-01T09:14:26;15.90;;;5.80;;
76892;SDS011;65854;51.466;7.260;2023-03-01T09:16:52;19.17;;;6.38;;
76892;SDS011;65854;51.466;7.260;2023-03-01T09:19:18;38.95;;;15.40;;
76892;SDS011;65854;51.466;7.260;2023-03-01T09:21:45;28.83;;;10.03;;
76892;SDS011;65854;51.466;7.260;2023-03-01T09:24:23;18.08;;;6.30;;
76892;SDS011;65854;51.466;7.260;2023-03-01T09:26:59;18.38;;;6.75;;
76892;SDS011;65854;51.466;7.260;2023-03-01T09:29:25;15.68;;;5.43;;
76892;SDS011;65854;51.466;7.260;2023-03-01T09:31:53;14.65;;;5.03;;
76892;SDS011;65854;51.466;7.260;2023-03-01T09:34:20;14.60;;;5.73;;
76892;SDS011;65854;51.466;7.260;2023-03-01T09:36:49;13.73;;;5.53;;
76892;SDS011;65854;51.466;7.260;2023-03-01T09:39:16;12.10;;;5.18;;
76892;SDS011;65854;51.466;7.260;2023-03-01T09:41:59;12.82;;;5.32;;
76892;SDS011;65854;51.466;7.260;2023-03-01T09:49:57;11.15;;;4.15;;
76892;SDS011;65854;51.466;7.260;2023-03-01T09:52:43;12.93;;;4.97;;
76892;SDS011;65854;51.466;7.260;2023-03-01T10:07:12;13.88;;;5.22;;
76892;SDS011;65854;51.466;7.260;2023-03-01T10:09:53;16.92;;;4.97;;
76892;SDS011;65854;51.466;7.260;2023-03-01T10:12:37;9.93;;;4.60;;
76892;SDS011;65854;51.466;7.260;2023-03-01T10:15:14;11.63;;;4.32;;
76892;SDS011;65854;51.466;7.260;2023-03-01T10:17:55;12.18;;;4.57;;
76892;SDS011;65854;51.466;7.260;2023-03-01T10:20:42;11.38;;;4.55;;
76892;SDS011;65854;51.466;7.260;2023-03-01T10:23:30;10.93;;;4.50;;
76892;SDS011;65854;51.466;7.260;2023-03-01T10:29:04;10.50;;;4.43;;
76892;SDS011;65854;51.466;7.260;2023-03-01T10:31:39;9.80;;;4.30;;
76892;SDS011;65854;51.466;7.260;2023-03-01T10:34:14;11.18;;;4.65;;
76892;SDS011;65854;51.466;7.260;2023-03-01T10:36:49;13.17;;;4.27;;
76892;SDS011;65854;51.466;7.260;2023-03-01T10:39:18;15.98;;;4.88;;
76892;SDS011;65854;51.466;7.260;2023-03-01T10:41:59;9.25;;;4.20;;
76892;SDS011;65854;51.466;7.260;2023-03-01T10:44:42;11.32;;;4.55;;
76892;SDS011;65854;51.466;7.260;2023-03-01T10:47:32;12.57;;;5.20;;
76892;SDS011;65854;51.466;7.260;2023-03-01T10:50:02;12.07;;;4.33;;
76892;SDS011;65854;51.466;7.260;2023-03-01T10:52:34;13.90;;;5.10;;
76892;SDS011;65854;51.466;7.260;2023-03-01T10:55:20;15.95;;;5.68;;
76892;SDS011;65854;51.466;7.260;2023-03-01T11:00:45;11.55;;;4.88;;
76892;SDS011;65854;51.466;7.260;2023-03-01T11:03:21;12.40;;;4.77;;
76892;SDS011;65854;51.466;7.260;2023-03-01T11:08:47;14.85;;;5.10;;
76892;SDS011;65854;51.466;7.260;2023-03-01T11:11:30;13.27;;;5.18;;
76892;SDS011;65854;51.466;7.260;2023-03-01T11:14:18;13.73;;;4.47;;
76892;SDS011;65854;51.466;7.260;2023-03-01T11:16:48;12.27;;;5.27;;
76892;SDS011;65854;51.466;7.260;2023-03-01T11:19:25;13.82;;;4.57;;
76892;SDS011;65854;51.466;7.260;2023-03-01T11:24:41;10.98;;;4.70;;
76892;SDS011;65854;51.466;7.260;2023-03-01T11:27:23;11.23;;;4.57;;
76892;SDS011;65854;51.466;7.260;2023-03-01T11:29:57;14.37;;;4.93;;
76892;SDS011;65854;51.466;7.260;2023-03-01T11:32:42;12.25;;;5.40;;
76892;SDS011;65854;51.466;7.260;2023-03-01T11:35:19;14.52;;;4.93;;
76892;SDS011;65854;51.466;7.260;2023-03-01T11:37:54;14.15;;;5.88;;
76892;SDS011;65854;51.466;7.260;2023-03-01T11:40:37;14.88;;;5.75;;
76892;SDS011;65854;51.466;7.260;2023-03-01T11:43:31;12.40;;;5.10;;
76892;SDS011;65854;51.466;7.260;2023-03-01T11:49:30;12.05;;;5.10;;
76892;SDS011;65854;51.466;7.260;2023-03-01T12:03:22;14.00;;;4.97;;
76892;SDS011;65854;51.466;7.260;2023-03-01T12:08:59;20.48;;;5.80;;
76892;SDS011;65854;51.466;7.260;2023-03-01T12:11:41;13.98;;;5.30;;
76892;SDS011;65854;51.466;7.260;2023-03-01T12:14:50;13.55;;;5.47;;
76892;SDS011;65854;51.466;7.260;2023-03-01T12:24:08;12.50;;;5.05;;
76892;SDS011;65854;51.466;7.260;2023-03-01T12:26:29;14.37;;;4.90;;
76892;SDS011;65854;51.466;7.260;2023-03-01T12:29:39;16.00;;;5.30;;
76892;SDS011;65854;51.466;7.260;2023-03-01T12:32:35;13.48;;;5.20;;
76892;SDS011;65854;51.466;7.260;2023-03-01T12:47:13;14.02;;;5.22;;
76892;SDS011;65854;51.466;7.260;2023-03-01T12:50:03;10.63;;;4.22;;
76892;SDS011;65854;51.466;7.260;2023-03-01T12:52:44;13.20;;;5.60;;
76892;SDS011;65854;51.466;7.260;2023-03-01T12:55:29;16.45;;;5.80;;
76892;SDS011;65854;51.466;7.260;2023-03-01T12:58:02;12.25;;;5.57;;
76892;SDS011;65854;51.466;7.260;2023-03-01T13:03:26;14.20;;;5.80;;
76892;SDS011;65854;51.466;7.260;2023-03-01T13:06:15;12.43;;;4.72;;
76892;SDS011;65854;51.466;7.260;2023-03-01T13:11:48;11.27;;;4.70;;
76892;SDS011;65854;51.466;7.260;2023-03-01T13:14:47;12.75;;;5.10;;
76892;SDS011;65854;51.466;7.260;2023-03-01T13:17:39;12.77;;;5.28;;
76892;SDS011;65854;51.466;7.260;2023-03-01T13:20:14;13.73;;;5.28;;
76892;SDS011;65854;51.466;7.260;2023-03-01T13:26:18;12.07;;;5.55;;
76892;SDS011;65854;51.466;7.260;2023-03-01T13:28:48;9.98;;;4.50;;
76892;SDS011;65854;51.466;7.260;2023-03-01T13:33:47;14.67;;;4.90;;
76892;SDS011;65854;51.466;7.260;2023-03-01T13:39:28;12.07;;;5.18;;
76892;SDS011;65854;51.466;7.260;2023-03-01T13:42:01;14.60;;;5.25;;
76892;SDS011;65854;51.466;7.260;2023-03-01T13:44:34;11.07;;;4.73;;
76892;SDS011;65854;51.466;7.260;2023-03-01T13:47:19;13.30;;;5.03;;
76892;SDS011;65854;51.466;7.260;2023-03-01T13:52:38;12.63;;;5.20;;
76892;SDS011;65854;51.466;7.260;2023-03-01T14:01:32;12.82;;;5.25;;
76892;SDS011;65854;51.466;7.260;2023-03-01T14:04:01;12.10;;;5.10;;
76892;SDS011;65854;51.466;7.260;2023-03-01T14:06:47;11.90;;;5.00;;
76892;SDS011;65854;51.466;7.260;2023-03-01T14:09:20;13.67;;;5.20;;
76892;SDS011;65854;51.466;7.260;2023-03-01T14:19:14;12.02;;;4.97;;
76892;SDS011;65854;51.466;7.260;2023-03-01T14:21:41;14.23;;;5.18;;
76892;SDS011;65854;51.466;7.260;2023-03-01T14:24:22;12.13;;;5.00;;
76892;SDS011;65854;51.466;7.260;2023-03-01T14:27:41;12.68;;;4.63;;
76892;SDS011;65854;51.466;7.260;2023-03-01T14:30:56;11.48;;;4.47;;
76892;SDS011;65854;51.466;7.260;2023-03-01T14:36:47;11.60;;;3.50;;
76892;SDS011;65854;51.466;7.260;2023-03-01T14:39:48;9.67;;;3.83;;
76892;SDS011;65854;51.466;7.260;2023-03-01T14:42:14;16.80;;;4.43;;
76892;SDS011;65854;51.466;7.260;2023-03-01T14:45:22;9.82;;;3.72;;
76892;SDS011;65854;51.466;7.260;2023-03-01T14:47:51;11.05;;;4.15;;
76892;SDS011;65854;51.466;7.260;2023-03-01T14:52:54;16.43;;;4.93;;
76892;SDS011;65854;51.466;7.260;2023-03-01T14:58:58;12.68;;;4.95;;
76892;SDS011;65854;51.466;7.260;2023-03-01T15:01:51;12.70;;;4.60;;
76892;SDS011;65854;51.466;7.260;2023-03-01T15:04:26;12.25;;;4.70;;
76892;SDS011;65854;51.466;7.260;2023-03-01T15:08:04;9.93;;;4.20;;
76892;SDS011;65854;51.466;7.260;2023-03-01T15:10:34;9.73;;;4.05;;
76892;SDS011;65854;51.466;7.260;2023-03-01T15:13:47;9.73;;;4.10;;
76892;SDS011;65854;51.466;7.260;2023-03-01T15:16:33;12.02;;;4.50;;
76892;SDS011;65854;51.466;7.260;2023-03-01T15:19:15;11.65;;;4.40;;
76892;SDS011;65854;51.466;7.260;2023-03-01T15:21:50;9.47;;;4.40;;
76892;SDS011;65854;51.466;7.260;2023-03-01T15:24:51;12.25;;;4.07;;
76892;SDS011;65854;51.466;7.260;2023-03-01T15:28:49;11.45;;;4.07;;
76892;SDS011;65854;51.466;7.260;2023-03-01T15:32:05;12.65;;;4.72;;
76892;SDS011;65854;51.466;7.260;2023-03-01T15:34:48;11.68;;;4.38;;
76892;SDS011;65854;51.466;7.260;2023-03-01T15:37:53;10.13;;;4.03;;
76892;SDS011;65854;51.466;7.260;2023-03-01T15:40:51;11.57;;;4.43;;
76892;SDS011;65854;51.466;7.260;2023-03-01T15:43:37;10.73;;;4.45;;
76892;SDS011;65854;51.466;7.260;2023-03-01T15:46:22;10.65;;;4.10;;
76892;SDS011;65854;51.466;7.260;2023-03-01T15:48:54;10.85;;;4.20;;
76892;SDS011;65854;51.466;7.260;2023-03-01T15:51:22;10.47;;;3.70;;
76892;SDS011;65854;51.466;7.260;2023-03-01T15:54:03;10.20;;;3.80;;
76892;SDS011;65854;51.466;7.260;2023-03-01T15:56:39;11.13;;;4.00;;
76892;SDS011;65854;51.466;7.260;2023-03-01T15:59:08;9.48;;;3.88;;
76892;SDS011;65854;51.466;7.260;2023-03-01T16:02:16;9.88;;;3.90;;
76892;SDS011;65854;51.466;7.260;2023-03-01T16:05:20;9.30;;;3.97;;
76892;SDS011;65854;51.466;7.260;2023-03-01T16:07:55;11.10;;;4.32;;
76892;SDS011;65854;51.466;7.260;2023-03-01T16:11:23;10.27;;;4.07;;
76892;SDS011;65854;51.466;7.260;2023-03-01T16:14:13;10.13;;;3.72;;
76892;SDS011;65854;51.466;7.260;2023-03-01T16:16:43;10.57;;;4.18;;
76892;SDS011;65854;51.466;7.260;2023-03-01T16:19:49;11.77;;;4.70;;
76892;SDS011;65854;51.466;7.260;2023-03-01T16:23:05;10.43;;;3.95;;
76892;SDS011;65854;51.466;7.260;2023-03-01T16:25:58;13.52;;;4.60;;
76892;SDS011;65854;51.466;7.260;2023-03-01T16:28:33;8.23;;;3.30;;
76892;SDS011;65854;51.466;7.260;2023-03-01T16:30:59;10.07;;;3.78;;
76892;SDS011;65854;51.466;7.260;2023-03-01T16:33:26;11.17;;;4.27;;
76892;SDS011;65854;51.466;7.260;2023-03-01T16:35:51;12.07;;;3.72;;
76892;SDS011;65854;51.466;7.260;2023-03-01T16:38:20;10.90;;;4.00;;
76892;SDS011;65854;51.466;7.260;2023-03-01T16:40:47;10.10;;;3.78;;
76892;SDS011;65854;51.466;7.260;2023-03-01T16:43:16;11.57;;;3.90;;
76892;SDS011;65854;51.466;7.260;2023-03-01T16:45:41;8.57;;;3.22;;
76892;SDS011;65854;51.466;7.260;2023-03-01T16:48:13;10.00;;;3.58;;
76892;SDS011;65854;51.466;7.260;2023-03-01T16:51:28;11.00;;;3.67;;
76892;SDS011;65854;51.466;7.260;2023-03-01T16:54:56;9.88;;;3.85;;
76892;SDS011;65854;51.466;7.260;2023-03-01T16:57:26;9.27;;;3.90;;
76892;SDS011;65854;51.466;7.260;2023-03-01T16:59:52;9.23;;;3.80;;
76892;SDS011;65854;51.466;7.260;2023-03-01T17:02:18;10.50;;;3.88;;
76892;SDS011;65854;51.466;7.260;2023-03-01T17:04:51;9.32;;;3.80;;
76892;SDS011;65854;51.466;7.260;2023-03-01T17:07:23;10.30;;;3.65;;
76892;SDS011;65854;51.466;7.260;2023-03-01T17:10:32;11.52;;;4.15;;